createdAt,value
2023-02-25T00:00:57.685Z,3.72
2023-02-25T00:02:04.239Z,3.55
2023-02-25T00:03:07.657Z,4.00
2023-02-25T00:04:09.722Z,3.50
2023-02-25T00:05:13.324Z,4.43
2023-02-25T00:06:15.337Z,3.85
2023-02-25T00:07:18.420Z,4.25
2023-02-25T00:08:20.445Z,3.50
2023-02-25T00:09:23.554Z,3.05
2023-02-25T00:10:25.676Z,3.13
2023-02-25T00:11:30.552Z,3.80
2023-02-25T00:12:32.684Z,3.38
2023-02-25T00:13:36.248Z,3.58
2023-02-25T00:14:38.117Z,3.30
2023-02-25T00:15:41.705Z,3.28
2023-02-25T00:16:43.757Z,3.50
2023-02-25T00:17:49.832Z,3.70
2023-02-25T00:18:55.568Z,3.38
2023-02-25T00:19:58.578Z,3.20
2023-02-25T00:21:05.304Z,3.08
2023-02-25T00:22:08.744Z,3.60
2023-02-25T00:23:10.779Z,3.65
2023-02-25T00:24:16.789Z,3.08
2023-02-25T00:25:19.164Z,3.45
2023-02-25T00:26:23.773Z,2.80
2023-02-25T00:27:28.866Z,3.50
2023-02-25T00:28:32.052Z,2.78
2023-02-25T00:29:35.018Z,3.50
2023-02-25T00:30:40.789Z,2.88
2023-02-25T00:31:43.221Z,3.22
2023-02-25T00:32:46.281Z,4.00
2023-02-25T00:33:49.085Z,3.30
2023-02-25T00:34:54.084Z,3.17
2023-02-25T00:35:56.065Z,3.13
2023-02-25T00:36:59.044Z,3.58
2023-02-25T00:38:15.039Z,2.95
2023-02-25T00:39:19.163Z,3.20
2023-02-25T00:40:21.294Z,2.45
2023-02-25T00:41:26.869Z,3.28
2023-02-25T00:42:30.302Z,3.67
2023-02-25T00:43:34.684Z,2.90
2023-02-25T00:44:37.071Z,2.55
2023-02-25T00:45:40.976Z,3.45
2023-02-25T00:46:43.023Z,2.83
2023-02-25T00:47:46.036Z,2.80
2023-02-25T00:48:48.622Z,2.03
2023-02-25T00:49:52.253Z,2.10
2023-02-25T00:50:54.231Z,2.33
2023-02-25T00:51:59.693Z,2.50
2023-02-25T00:53:02.101Z,2.25
2023-02-25T00:54:05.403Z,2.95
2023-02-25T00:55:08.466Z,2.55
2023-02-25T00:56:14.987Z,3.75
2023-02-25T00:57:17.071Z,2.47
2023-02-25T00:58:21.394Z,2.63
2023-02-25T00:59:24.374Z,2.65
2023-02-25T01:00:26.414Z,2.60
2023-02-25T01:01:33.325Z,2.45
2023-02-25T01:02:35.595Z,2.80
2023-02-25T01:03:38.551Z,2.78
2023-02-25T01:04:40.907Z,2.47
2023-02-25T01:05:44.003Z,2.70
2023-02-25T01:06:46.124Z,2.38
2023-02-25T01:07:49.244Z,3.08
2023-02-25T01:08:51.341Z,2.30
2023-02-25T01:09:56.363Z,2.55
2023-02-25T01:10:58.342Z,2.00
2023-02-25T01:12:02.547Z,3.00
2023-02-25T01:13:04.836Z,2.63
2023-02-25T01:14:13.050Z,2.55
2023-02-25T01:15:15.162Z,2.10
2023-02-25T01:16:21.873Z,2.95
2023-02-25T01:17:24.316Z,2.95
2023-02-25T01:18:27.563Z,2.35
2023-02-25T01:19:29.979Z,3.20
2023-02-25T01:20:33.118Z,2.60
2023-02-25T01:21:36.986Z,2.85
2023-02-25T01:22:41.765Z,2.70
2023-02-25T01:23:44.828Z,2.20
2023-02-25T01:24:47.836Z,2.50
2023-02-25T01:25:49.838Z,2.33
2023-02-25T01:26:55.674Z,2.28
2023-02-25T01:27:57.953Z,2.50
2023-02-25T01:29:01.472Z,2.20
2023-02-25T01:30:06.163Z,3.33
2023-02-25T01:31:17.015Z,2.60
2023-02-25T01:32:20.971Z,2.53
2023-02-25T01:33:24.286Z,2.33
2023-02-25T01:34:27.281Z,2.92
2023-02-25T01:35:30.270Z,2.47
2023-02-25T01:36:33.214Z,1.98
2023-02-25T01:37:36.239Z,1.63
2023-02-25T01:38:39.354Z,2.38
2023-02-25T01:39:42.459Z,1.95
2023-02-25T01:40:45.227Z,2.15
2023-02-25T01:41:51.142Z,2.30
2023-02-25T01:42:53.942Z,2.88
2023-02-25T01:44:10.473Z,1.90
2023-02-25T01:45:29.433Z,1.88
2023-02-25T01:46:32.553Z,2.10
2023-02-25T01:47:37.947Z,1.90
2023-02-25T01:48:42.120Z,2.50
2023-02-25T01:49:46.436Z,1.60
2023-02-25T01:50:52.998Z,2.35
2023-02-25T01:51:58.242Z,1.92
2023-02-25T01:53:03.566Z,1.95
2023-02-25T01:54:08.784Z,1.80
2023-02-25T01:55:12.284Z,1.90
2023-02-25T01:56:20.694Z,2.10
2023-02-25T01:57:25.099Z,2.38
2023-02-25T01:58:28.085Z,1.95
2023-02-25T01:59:32.910Z,1.90
2023-02-25T02:00:37.839Z,1.63
2023-02-25T02:01:41.609Z,1.60
2023-02-25T02:02:47.436Z,1.90
2023-02-25T02:03:52.175Z,1.95
2023-02-25T02:04:54.900Z,1.30
2023-02-25T02:06:05.873Z,2.10
2023-02-25T02:07:08.169Z,1.33
2023-02-25T02:08:11.520Z,2.42
2023-02-25T02:09:15.522Z,1.15
2023-02-25T02:10:19.708Z,1.50
2023-02-25T02:11:22.063Z,1.70
2023-02-25T02:12:27.156Z,1.30
2023-02-25T02:13:30.423Z,1.70
2023-02-25T02:14:37.206Z,1.27
2023-02-25T02:15:48.030Z,1.50
2023-02-25T02:17:17.021Z,1.45
2023-02-25T02:18:21.212Z,1.90
2023-02-25T02:19:38.886Z,1.75
2023-02-25T02:20:50.870Z,1.58
2023-02-25T02:22:06.218Z,1.40
2023-02-25T02:23:29.654Z,1.42
2023-02-25T02:25:14.053Z,1.60
2023-02-25T02:26:37.316Z,2.00
2023-02-25T02:28:06.563Z,1.42
2023-02-25T02:29:53.961Z,1.27
2023-02-25T02:31:14.904Z,1.65
2023-02-25T02:32:30.995Z,1.55
2023-02-25T02:33:43.667Z,1.38
2023-02-25T02:34:53.823Z,1.40
2023-02-25T02:36:00.582Z,1.30
2023-02-25T02:37:13.922Z,1.40
2023-02-25T02:38:25.584Z,1.70
2023-02-25T02:39:37.360Z,1.35
2023-02-25T02:40:47.218Z,1.63
2023-02-25T02:42:01.436Z,1.10
2023-02-25T02:43:22.228Z,1.90
2023-02-25T02:44:30.981Z,1.40
2023-02-25T02:45:42.733Z,1.63
2023-02-25T02:46:52.731Z,1.10
2023-02-25T02:48:00.468Z,1.42
2023-02-25T02:49:10.492Z,1.10
2023-02-25T02:50:16.413Z,1.20
2023-02-25T02:51:24.398Z,0.95
2023-02-25T02:52:30.401Z,1.00
2023-02-25T02:53:37.724Z,0.90
2023-02-25T02:54:42.295Z,1.50
2023-02-25T02:55:49.232Z,0.90
2023-02-25T02:56:55.168Z,1.20
2023-02-25T02:58:05.138Z,1.42
2023-02-25T02:59:12.502Z,1.23
2023-02-25T03:00:19.976Z,1.20
2023-02-25T03:01:35.004Z,1.10
2023-02-25T03:02:41.096Z,1.20
2023-02-25T03:03:46.979Z,1.20
2023-02-25T03:04:52.393Z,1.10
2023-02-25T03:05:54.531Z,0.85
2023-02-25T03:07:01.177Z,0.85
2023-02-25T03:08:07.941Z,1.27
2023-02-25T03:09:16.446Z,1.00
2023-02-25T03:10:22.616Z,0.90
2023-02-25T03:11:26.847Z,1.20
2023-02-25T03:12:30.180Z,1.08
2023-02-25T03:13:33.348Z,0.90
2023-02-25T03:14:36.514Z,1.25
2023-02-25T03:15:41.583Z,0.70
2023-02-25T03:16:47.165Z,1.30
2023-02-25T03:17:55.626Z,1.10
2023-02-25T03:19:03.598Z,1.45
2023-02-25T03:20:14.259Z,1.05
2023-02-25T03:21:21.697Z,1.17
2023-02-25T03:22:28.817Z,1.30
2023-02-25T03:23:33.667Z,1.00
2023-02-25T03:24:42.108Z,1.00
2023-02-25T03:25:47.530Z,1.00
2023-02-25T03:26:54.043Z,1.10
2023-02-25T03:28:04.840Z,1.10
2023-02-25T03:29:16.997Z,0.73
2023-02-25T03:30:28.381Z,0.77
2023-02-25T03:31:36.049Z,0.90
2023-02-25T03:32:42.421Z,0.70
2023-02-25T03:33:49.782Z,0.90
2023-02-25T03:34:58.078Z,0.88
2023-02-25T03:36:05.997Z,1.10
2023-02-25T03:37:15.936Z,0.70
2023-02-25T03:38:23.608Z,1.10
2023-02-25T03:39:30.105Z,1.08
2023-02-25T03:40:34.164Z,1.15
2023-02-25T03:41:42.380Z,1.10
2023-02-25T03:42:51.397Z,1.05
2023-02-25T03:43:57.457Z,1.30
2023-02-25T03:45:02.420Z,1.20
2023-02-25T03:46:06.690Z,1.40
2023-02-25T03:47:12.009Z,0.82
2023-02-25T03:48:19.157Z,1.40
2023-02-25T03:49:27.614Z,1.20
2023-02-25T03:50:34.709Z,1.10
2023-02-25T03:51:42.502Z,1.45
2023-02-25T03:52:45.843Z,1.40
2023-02-25T03:54:04.097Z,1.60
2023-02-25T03:55:14.422Z,1.17
2023-02-25T03:56:16.662Z,1.55
2023-02-25T03:57:21.064Z,1.25
2023-02-25T03:58:23.321Z,1.08
2023-02-25T03:59:28.322Z,1.33
2023-02-25T04:00:32.973Z,1.42
2023-02-25T04:01:36.999Z,1.20
2023-02-25T04:02:40.299Z,1.70
2023-02-25T04:03:43.355Z,1.05
2023-02-25T04:04:47.147Z,1.35
2023-02-25T04:05:50.226Z,1.55
2023-02-25T04:06:52.462Z,1.40
2023-02-25T04:07:55.772Z,1.40
2023-02-25T04:08:58.377Z,1.67
2023-02-25T04:10:01.398Z,1.35
2023-02-25T04:11:04.902Z,2.03
2023-02-25T04:12:08.763Z,1.60
2023-02-25T04:13:11.638Z,1.85
2023-02-25T04:14:15.623Z,1.73
2023-02-25T04:15:18.516Z,1.70
2023-02-25T04:16:21.979Z,1.80
2023-02-25T04:17:26.050Z,1.63
2023-02-25T04:18:29.135Z,1.50
2023-02-25T04:19:31.092Z,1.40
2023-02-25T04:20:35.823Z,2.00
2023-02-25T04:21:39.470Z,1.55
2023-02-25T04:22:42.563Z,1.85
2023-02-25T04:23:44.522Z,2.28
2023-02-25T04:24:47.558Z,2.10
2023-02-25T04:25:49.512Z,1.80
2023-02-25T04:27:01.596Z,1.60
2023-02-25T04:28:03.685Z,1.70
2023-02-25T04:29:06.719Z,1.73
2023-02-25T04:30:10.567Z,2.45
2023-02-25T04:31:13.566Z,2.00
2023-02-25T04:32:15.661Z,1.70
2023-02-25T04:33:18.688Z,2.03
2023-02-25T04:34:20.873Z,1.70
2023-02-25T04:35:23.973Z,1.80
2023-02-25T04:36:29.315Z,2.30
2023-02-25T04:37:32.321Z,1.95
2023-02-25T04:38:35.368Z,2.45
2023-02-25T04:39:37.415Z,1.83
2023-02-25T04:40:40.408Z,2.30
2023-02-25T04:41:43.018Z,2.00
2023-02-25T04:42:48.050Z,2.20
2023-02-25T04:43:50.737Z,1.85
2023-02-25T04:44:53.670Z,2.22
2023-02-25T04:45:55.649Z,1.63
2023-02-25T04:46:58.606Z,1.98
2023-02-25T04:48:00.546Z,1.90
2023-02-25T04:49:04.406Z,2.00
2023-02-25T04:50:08.151Z,2.30
2023-02-25T04:51:11.318Z,2.10
2023-02-25T04:52:15.580Z,2.30
2023-02-25T04:53:18.537Z,1.90
2023-02-25T04:54:21.411Z,2.30
2023-02-25T04:55:24.379Z,2.35
2023-02-25T04:56:26.482Z,2.63
2023-02-25T04:57:29.669Z,2.45
2023-02-25T04:58:31.720Z,2.35
2023-02-25T04:59:34.777Z,2.33
2023-02-25T05:00:38.599Z,2.10
2023-02-25T05:01:42.038Z,2.33
2023-02-25T05:02:44.081Z,2.00
2023-02-25T05:03:47.330Z,2.60
2023-02-25T05:04:49.386Z,2.50
2023-02-25T05:05:52.454Z,2.47
2023-02-25T05:06:54.387Z,3.15
2023-02-25T05:07:58.690Z,2.00
2023-02-25T05:09:00.859Z,2.40
2023-02-25T05:10:04.880Z,2.63
2023-02-25T05:11:07.378Z,2.70
2023-02-25T05:12:10.423Z,2.40
2023-02-25T05:13:12.361Z,2.60
2023-02-25T05:14:15.293Z,3.47
2023-02-25T05:15:17.316Z,2.40
2023-02-25T05:16:20.668Z,2.90
2023-02-25T05:17:22.749Z,3.05
2023-02-25T05:18:25.771Z,2.95
2023-02-25T05:19:27.775Z,2.20
2023-02-25T05:20:30.843Z,2.72
2023-02-25T05:21:33.295Z,3.03
2023-02-25T05:22:36.207Z,3.10
2023-02-25T05:23:39.599Z,3.50
2023-02-25T05:24:42.752Z,2.72
2023-02-25T05:25:44.618Z,2.53
2023-02-25T05:26:47.525Z,2.83
2023-02-25T05:27:49.647Z,3.17
2023-02-25T05:28:53.485Z,3.33
2023-02-25T05:29:56.010Z,3.75
2023-02-25T05:30:59.370Z,3.50
2023-02-25T05:32:01.583Z,3.25
2023-02-25T05:33:04.923Z,3.20
2023-02-25T05:34:06.984Z,3.03
2023-02-25T05:35:12.130Z,2.80
2023-02-25T05:36:15.892Z,3.20
2023-02-25T05:37:18.890Z,2.85
2023-02-25T05:38:20.920Z,3.35
2023-02-25T05:39:25.710Z,3.40
2023-02-25T05:40:27.896Z,3.15
2023-02-25T05:41:31.727Z,3.30
2023-02-25T05:42:33.759Z,2.70
2023-02-25T05:43:37.847Z,3.70
2023-02-25T05:44:39.741Z,3.92
2023-02-25T05:45:42.609Z,2.85
2023-02-25T05:46:44.766Z,3.17
2023-02-25T05:47:47.973Z,3.60
2023-02-25T05:48:49.893Z,3.38
2023-02-25T05:49:52.757Z,4.30
2023-02-25T05:51:00.975Z,3.97
2023-02-25T05:52:03.910Z,3.38
2023-02-25T05:53:05.910Z,3.58
2023-02-25T05:54:08.885Z,3.33
2023-02-25T05:55:12.439Z,4.30
2023-02-25T05:56:17.808Z,3.10
2023-02-25T05:57:19.749Z,3.22
2023-02-25T05:58:22.863Z,3.35
2023-02-25T05:59:25.774Z,3.10
2023-02-25T06:00:27.934Z,3.00
2023-02-25T06:01:31.693Z,2.90
2023-02-25T06:02:33.707Z,3.13
2023-02-25T06:03:36.964Z,2.70
2023-02-25T06:04:38.839Z,3.00
2023-02-25T06:05:42.118Z,3.58
2023-02-25T06:06:50.317Z,3.20
2023-02-25T06:07:53.425Z,3.58
2023-02-25T06:08:55.506Z,3.83
2023-02-25T06:10:00.762Z,3.60
2023-02-25T06:11:05.725Z,3.15
2023-02-25T06:12:09.248Z,3.88
2023-02-25T06:13:12.027Z,3.50
2023-02-25T06:14:15.860Z,3.72
2023-02-25T06:15:18.249Z,3.72
2023-02-25T06:16:21.955Z,3.40
2023-02-25T06:17:24.862Z,3.78
2023-02-25T06:18:27.936Z,3.47
2023-02-25T06:19:29.998Z,3.80
2023-02-25T06:20:35.202Z,3.10
2023-02-25T06:21:37.217Z,3.30
2023-02-25T06:22:40.195Z,3.45
2023-02-25T06:23:43.520Z,4.03
2023-02-25T06:24:47.052Z,3.45
2023-02-25T06:25:49.038Z,3.42
2023-02-25T06:26:53.420Z,3.58
2023-02-25T06:27:55.433Z,3.90
2023-02-25T06:28:58.771Z,3.65
2023-02-25T06:30:02.680Z,3.40
2023-02-25T06:31:09.791Z,4.15
2023-02-25T06:32:12.159Z,3.75
2023-02-25T06:33:15.231Z,3.30
2023-02-25T06:34:19.101Z,3.00
2023-02-25T06:35:23.485Z,3.05
2023-02-25T06:36:27.065Z,3.88
2023-02-25T06:37:29.168Z,3.60
2023-02-25T06:38:32.582Z,4.35
2023-02-25T06:39:34.881Z,3.42
2023-02-25T06:40:39.205Z,3.15
2023-02-25T06:41:41.117Z,3.25
2023-02-25T06:42:45.538Z,3.53
2023-02-25T06:43:52.047Z,3.60
2023-02-25T06:44:55.136Z,3.47
2023-02-25T06:45:57.095Z,3.00
2023-02-25T06:46:59.984Z,3.72
2023-02-25T06:48:02.066Z,4.13
2023-02-25T06:49:05.002Z,2.90
2023-02-25T06:50:08.527Z,3.60
2023-02-25T06:51:12.855Z,3.88
2023-02-25T06:52:15.199Z,3.58
2023-02-25T06:53:18.548Z,4.10
2023-02-25T06:54:20.514Z,3.80
2023-02-25T06:55:23.468Z,3.40
2023-02-25T06:56:26.665Z,3.65
2023-02-25T06:57:29.835Z,3.28
2023-02-25T06:58:33.234Z,2.85
2023-02-25T06:59:36.633Z,3.00
2023-02-25T07:00:38.814Z,3.58
2023-02-25T07:01:41.854Z,3.60
2023-02-25T07:02:43.990Z,3.50
2023-02-25T07:03:47.010Z,4.20
2023-02-25T07:04:49.910Z,3.65
2023-02-25T07:05:51.889Z,2.90
2023-02-25T07:06:54.817Z,4.10
2023-02-25T07:07:56.730Z,3.05
2023-02-25T07:08:59.679Z,3.53
2023-02-25T07:10:01.691Z,3.90
2023-02-25T07:11:14.914Z,3.50
2023-02-25T07:12:17.082Z,3.65
2023-02-25T07:13:20.054Z,3.72
2023-02-25T07:14:24.955Z,3.60
2023-02-25T07:15:27.162Z,3.50
2023-02-25T07:16:30.895Z,3.03
2023-02-25T07:17:33.830Z,3.78
2023-02-25T07:18:35.783Z,3.53
2023-02-25T07:19:38.676Z,3.90
2023-02-25T07:20:40.539Z,4.53
2023-02-25T07:21:43.833Z,3.75
2023-02-25T07:22:45.813Z,3.72
2023-02-25T07:23:48.832Z,3.95
2023-02-25T07:24:51.310Z,3.35
2023-02-25T07:25:54.216Z,3.60
2023-02-25T07:26:57.599Z,3.20
2023-02-25T07:27:59.853Z,3.35
2023-02-25T07:29:02.804Z,3.92
2023-02-25T07:30:07.527Z,4.05
2023-02-25T07:31:13.569Z,3.22
2023-02-25T07:32:15.832Z,3.97
2023-02-25T07:33:19.245Z,3.72
2023-02-25T07:34:22.853Z,4.18
2023-02-25T07:35:24.841Z,3.30
2023-02-25T07:36:28.566Z,3.85
2023-02-25T07:37:30.629Z,3.92
2023-02-25T07:38:33.758Z,3.25
2023-02-25T07:39:35.881Z,3.75
2023-02-25T07:40:41.162Z,3.38
2023-02-25T07:41:43.182Z,3.40
2023-02-25T07:42:47.890Z,3.60
2023-02-25T07:43:49.833Z,3.38
2023-02-25T07:44:52.936Z,3.25
2023-02-25T07:45:58.451Z,3.70
2023-02-25T07:47:01.491Z,3.75
2023-02-25T07:48:03.855Z,4.03
2023-02-25T07:49:06.756Z,3.90
2023-02-25T07:50:12.693Z,3.50
2023-02-25T07:51:18.476Z,3.42
2023-02-25T07:52:20.381Z,4.25
2023-02-25T07:53:23.617Z,3.83
2023-02-25T07:54:26.648Z,3.03
2023-02-25T07:55:28.775Z,3.30
2023-02-25T07:56:32.536Z,3.80
2023-02-25T07:57:35.537Z,4.47
2023-02-25T07:58:39.084Z,3.85
2023-02-25T07:59:42.275Z,3.22
2023-02-25T08:00:46.272Z,3.22
2023-02-25T08:01:50.579Z,2.97
2023-02-25T08:02:52.604Z,2.97
2023-02-25T08:03:57.399Z,2.85
2023-02-25T08:05:01.107Z,2.30
2023-02-25T08:06:08.266Z,2.65
2023-02-25T08:07:10.275Z,2.97
2023-02-25T08:08:14.288Z,3.33
2023-02-25T08:09:16.213Z,3.10
2023-02-25T08:10:19.366Z,3.00
2023-02-25T08:11:23.225Z,2.53
2023-02-25T08:12:26.406Z,2.90
2023-02-25T08:13:28.294Z,2.72
2023-02-25T08:14:31.295Z,2.88
2023-02-25T08:15:33.238Z,3.83
2023-02-25T08:16:36.256Z,3.30
2023-02-25T08:17:39.603Z,2.90
2023-02-25T08:18:43.555Z,2.95
2023-02-25T08:19:45.477Z,3.70
2023-02-25T08:20:48.775Z,3.80
2023-02-25T08:21:51.632Z,3.55
2023-02-25T08:22:57.062Z,2.88
2023-02-25T08:24:00.918Z,3.22
2023-02-25T08:25:02.953Z,3.72
2023-02-25T08:26:06.504Z,3.88
2023-02-25T08:27:08.761Z,3.65
2023-02-25T08:28:11.747Z,3.53
2023-02-25T08:29:15.251Z,2.45
2023-02-25T08:30:17.934Z,2.30
2023-02-25T08:31:22.654Z,2.60
2023-02-25T08:32:27.487Z,2.80
2023-02-25T08:33:31.023Z,3.05
2023-02-25T08:34:34.265Z,2.72
2023-02-25T08:35:36.122Z,3.35
2023-02-25T08:36:38.997Z,2.92
2023-02-25T08:37:41.010Z,2.60
2023-02-25T08:38:44.646Z,2.78
2023-02-25T08:39:46.723Z,2.95
2023-02-25T08:40:49.634Z,2.60
2023-02-25T08:41:52.632Z,2.38
2023-02-25T08:42:54.902Z,4.18
2023-02-25T08:44:00.557Z,3.08
2023-02-25T08:45:03.234Z,2.30
2023-02-25T08:46:07.369Z,3.20
2023-02-25T08:47:09.487Z,3.13
2023-02-25T08:48:13.566Z,2.78
2023-02-25T08:49:16.946Z,2.80
2023-02-25T08:50:20.030Z,2.47
2023-02-25T08:51:25.362Z,2.53
2023-02-25T08:52:33.618Z,2.40
2023-02-25T08:53:37.001Z,2.30
2023-02-25T08:54:40.078Z,2.58
2023-02-25T08:55:42.095Z,2.00
2023-02-25T08:56:45.696Z,2.13
2023-02-25T08:57:47.785Z,2.67
2023-02-25T08:58:50.686Z,2.10
2023-02-25T08:59:52.588Z,2.00
2023-02-25T09:00:56.015Z,2.00
2023-02-25T09:01:59.077Z,2.22
2023-02-25T09:03:00.987Z,2.92
2023-02-25T09:04:03.921Z,2.03
2023-02-25T09:05:08.162Z,2.30
2023-02-25T09:06:12.639Z,2.20
2023-02-25T09:07:16.366Z,2.17
2023-02-25T09:08:18.388Z,2.00
2023-02-25T09:09:23.392Z,2.25
2023-02-25T09:10:26.701Z,2.45
2023-02-25T09:11:28.962Z,2.35
2023-02-25T09:12:32.187Z,2.08
2023-02-25T09:13:34.098Z,2.47
2023-02-25T09:14:37.660Z,2.00
2023-02-25T09:15:39.655Z,1.80
2023-02-25T09:16:42.578Z,2.00
2023-02-25T09:17:45.057Z,2.10
2023-02-25T09:18:50.077Z,2.10
2023-02-25T09:19:53.012Z,2.13
2023-02-25T09:20:56.306Z,2.50
2023-02-25T09:21:59.465Z,2.60
2023-02-25T09:23:01.513Z,1.55
2023-02-25T09:24:04.706Z,2.30
2023-02-25T09:25:08.328Z,2.10
2023-02-25T09:26:10.862Z,2.25
2023-02-25T09:27:13.855Z,1.70
2023-02-25T09:28:16.055Z,2.20
2023-02-25T09:29:19.094Z,2.70
2023-02-25T09:30:22.228Z,2.20
2023-02-25T09:31:24.575Z,2.10
2023-02-25T09:32:27.821Z,1.70
2023-02-25T09:33:31.162Z,1.92
2023-02-25T09:34:34.860Z,1.67
2023-02-25T09:35:36.759Z,2.45
2023-02-25T09:36:41.091Z,2.42
2023-02-25T09:37:44.314Z,2.85
2023-02-25T09:38:49.439Z,1.83
2023-02-25T09:39:52.652Z,2.40
2023-02-25T09:40:54.545Z,2.00
2023-02-25T09:42:03.394Z,2.05
2023-02-25T09:43:20.021Z,1.60
2023-02-25T09:44:28.174Z,1.90
2023-02-25T09:45:33.138Z,2.28
2023-02-25T09:46:41.373Z,1.90
2023-02-25T09:47:48.840Z,1.80
2023-02-25T09:48:57.000Z,2.17
2023-02-25T09:50:03.698Z,2.22
2023-02-25T09:51:22.601Z,1.98
2023-02-25T09:52:32.118Z,2.17
2023-02-25T09:53:40.238Z,1.90
2023-02-25T09:54:46.661Z,2.28
2023-02-25T09:55:50.792Z,2.15
2023-02-25T09:56:56.389Z,2.53
2023-02-25T09:58:03.975Z,2.20
2023-02-25T09:59:14.256Z,2.50
2023-02-25T10:00:18.520Z,1.73
2023-02-25T10:01:34.237Z,1.67
2023-02-25T10:02:42.139Z,1.63
2023-02-25T10:03:54.905Z,1.40
2023-02-25T10:05:08.550Z,1.85
2023-02-25T10:06:17.585Z,1.65
2023-02-25T10:07:25.662Z,1.88
2023-02-25T10:08:36.397Z,1.95
2023-02-25T10:09:46.418Z,1.65
2023-02-25T10:10:58.703Z,1.15
2023-02-25T10:12:13.315Z,1.50
2023-02-25T10:13:27.709Z,1.60
2023-02-25T10:14:46.301Z,1.60
2023-02-25T10:16:00.415Z,1.40
2023-02-25T10:17:09.748Z,1.63
2023-02-25T10:18:34.301Z,1.90
2023-02-25T10:19:52.807Z,1.70
2023-02-25T10:21:08.813Z,1.73
2023-02-25T10:22:27.484Z,1.65
2023-02-25T10:23:46.358Z,1.95
2023-02-25T10:24:52.848Z,1.50
2023-02-25T10:25:58.728Z,1.38
2023-02-25T10:27:11.319Z,1.30
2023-02-25T10:28:16.419Z,1.67
2023-02-25T10:29:29.273Z,1.98
2023-02-25T10:30:39.413Z,1.65
2023-02-25T10:31:44.115Z,1.52
2023-02-25T10:32:49.100Z,1.95
2023-02-25T10:33:54.905Z,1.75
2023-02-25T10:35:00.132Z,1.55
2023-02-25T10:36:10.146Z,1.45
2023-02-25T10:37:17.358Z,1.10
2023-02-25T10:38:20.314Z,1.55
2023-02-25T10:39:24.797Z,1.30
2023-02-25T10:40:29.285Z,1.88
2023-02-25T10:41:31.569Z,1.50
2023-02-25T10:42:35.103Z,1.33
2023-02-25T10:43:37.090Z,2.28
2023-02-25T10:44:40.209Z,1.13
2023-02-25T10:45:46.894Z,1.30
2023-02-25T10:46:54.472Z,1.30
2023-02-25T10:48:06.947Z,1.58
2023-02-25T10:49:16.562Z,2.03
2023-02-25T10:50:25.830Z,1.30
2023-02-25T10:51:36.766Z,1.73
2023-02-25T10:52:54.524Z,1.40
2023-02-25T10:54:07.484Z,0.90
2023-02-25T10:55:27.707Z,0.80
2023-02-25T10:56:35.006Z,1.02
2023-02-25T10:57:43.656Z,1.17
2023-02-25T10:59:02.012Z,1.10
2023-02-25T11:00:08.429Z,0.95
2023-02-25T11:01:15.233Z,0.75
2023-02-25T11:02:23.987Z,1.13
2023-02-25T11:03:30.429Z,0.98
2023-02-25T11:04:35.928Z,0.90
2023-02-25T11:05:40.849Z,0.88
2023-02-25T11:06:45.674Z,0.90
2023-02-25T11:07:49.615Z,1.13
2023-02-25T11:08:54.789Z,1.75
2023-02-25T11:10:09.437Z,1.08
2023-02-25T11:11:20.725Z,1.02
2023-02-25T11:12:24.753Z,0.90
2023-02-25T11:13:29.779Z,0.70
2023-02-25T11:14:33.799Z,0.82
2023-02-25T11:15:45.348Z,1.25
2023-02-25T11:16:49.367Z,1.20
2023-02-25T11:17:52.032Z,1.27
2023-02-25T11:18:58.483Z,1.30
2023-02-25T11:20:01.917Z,1.38
2023-02-25T11:21:08.219Z,1.17
2023-02-25T11:22:18.386Z,0.90
2023-02-25T11:23:26.026Z,1.00
2023-02-25T11:24:33.403Z,1.05
2023-02-25T11:25:43.563Z,0.93
2023-02-25T11:26:49.570Z,0.82
2023-02-25T11:27:58.596Z,0.90
2023-02-25T11:29:05.097Z,1.00
2023-02-25T11:30:20.319Z,1.20
2023-02-25T11:31:27.763Z,1.15
2023-02-25T11:32:32.422Z,1.20
2023-02-25T11:33:38.705Z,0.82
2023-02-25T11:34:48.785Z,1.05
2023-02-25T11:35:56.928Z,0.90
2023-02-25T11:37:24.628Z,1.10
2023-02-25T11:38:29.756Z,0.70
2023-02-25T11:39:35.036Z,0.90
2023-02-25T11:40:44.166Z,1.30
2023-02-25T11:41:50.559Z,1.17
2023-02-25T11:43:13.637Z,1.00
2023-02-25T11:44:29.581Z,0.82
2023-02-25T11:45:33.754Z,1.17
2023-02-25T11:46:38.658Z,0.90
2023-02-25T11:47:42.780Z,1.40
2023-02-25T11:48:51.084Z,1.00
2023-02-25T11:50:20.167Z,1.40
2023-02-25T11:51:26.572Z,1.00
2023-02-25T11:52:39.575Z,1.15
2023-02-25T11:53:57.555Z,1.10
2023-02-25T11:55:12.696Z,1.00
2023-02-25T11:56:24.779Z,1.17
2023-02-25T11:57:40.700Z,1.20
2023-02-25T11:58:54.820Z,0.90
2023-02-25T12:00:11.931Z,0.90
2023-02-25T12:01:21.293Z,0.90
2023-02-25T12:02:46.383Z,1.25
2023-02-25T12:04:03.486Z,0.75
2023-02-25T12:05:37.536Z,0.90
2023-02-25T12:06:56.455Z,0.80
2023-02-25T12:08:21.618Z,1.05
2023-02-25T12:09:58.440Z,1.13
2023-02-25T12:11:46.626Z,1.08
2023-02-25T12:13:21.377Z,1.50
2023-02-25T12:14:51.193Z,1.20
2023-02-25T12:16:25.099Z,0.77
2023-02-25T12:17:52.095Z,1.00
2023-02-25T12:19:19.982Z,1.25
2023-02-25T12:20:50.241Z,1.10
2023-02-25T12:22:14.963Z,1.23
2023-02-25T12:23:51.301Z,1.20
2023-02-25T12:25:12.602Z,0.85
2023-02-25T12:26:18.607Z,0.80
2023-02-25T12:27:48.214Z,1.00
2023-02-25T12:29:09.263Z,0.80
2023-02-25T12:30:41.181Z,1.00
2023-02-25T12:32:09.487Z,1.20
2023-02-25T12:33:29.645Z,1.02
2023-02-25T12:34:55.620Z,0.70
2023-02-25T12:36:27.374Z,0.80
2023-02-25T12:37:54.164Z,0.70
2023-02-25T12:39:14.057Z,0.98
2023-02-25T12:40:33.305Z,0.77
2023-02-25T12:41:39.887Z,1.10
2023-02-25T12:42:56.641Z,0.90
2023-02-25T12:44:20.496Z,0.80
2023-02-25T12:45:35.975Z,1.55
2023-02-25T12:46:52.728Z,0.90
2023-02-25T12:48:16.119Z,1.08
2023-02-25T12:49:54.775Z,1.10
2023-02-25T12:51:21.277Z,1.05
2023-02-25T12:52:37.529Z,1.23
2023-02-25T12:53:51.438Z,1.00
2023-02-25T12:55:23.223Z,1.10
2023-02-25T12:56:53.289Z,1.00
2023-02-25T12:58:16.619Z,0.90
2023-02-25T12:59:39.909Z,0.95
2023-02-25T13:01:07.314Z,1.63
2023-02-25T13:02:48.721Z,1.10
2023-02-25T13:04:43.925Z,0.95
2023-02-25T13:06:20.814Z,0.85
2023-02-25T13:08:06.456Z,0.95
2023-02-25T13:09:40.336Z,1.27
2023-02-25T13:11:03.815Z,0.90
2023-02-25T13:12:20.718Z,1.50
2023-02-25T13:13:46.236Z,1.05
2023-02-25T13:15:01.187Z,0.98
2023-02-25T13:16:18.146Z,1.20
2023-02-25T13:17:52.350Z,1.17
2023-02-25T13:19:12.397Z,0.90
2023-02-25T13:21:00.118Z,0.75
2023-02-25T13:22:20.441Z,1.10
2023-02-25T13:23:48.155Z,1.30
2023-02-25T13:24:58.040Z,1.75
2023-02-25T13:26:12.443Z,1.25
2023-02-25T13:27:32.012Z,1.00
2023-02-25T13:28:51.860Z,1.10
2023-02-25T13:30:05.417Z,1.30
2023-02-25T13:31:14.732Z,1.27
2023-02-25T13:32:29.056Z,1.58
2023-02-25T13:33:52.833Z,1.05
2023-02-25T13:35:13.387Z,1.17
2023-02-25T13:36:32.653Z,1.33
2023-02-25T13:37:46.305Z,0.90
2023-02-25T13:39:13.103Z,0.90
2023-02-25T13:40:29.193Z,1.10
2023-02-25T13:41:42.731Z,0.93
2023-02-25T13:43:01.752Z,1.15
2023-02-25T13:44:33.049Z,1.10
2023-02-25T13:46:00.536Z,0.90
2023-02-25T13:47:38.919Z,0.95
2023-02-25T13:49:20.547Z,0.80
2023-02-25T13:50:33.451Z,1.10
2023-02-25T13:52:18.063Z,1.15
2023-02-25T13:53:43.838Z,0.93
2023-02-25T13:55:24.256Z,0.90
2023-02-25T13:56:51.340Z,0.80
2023-02-25T13:58:07.746Z,0.90
2023-02-25T13:59:22.520Z,1.20
2023-02-25T14:00:56.104Z,0.85
2023-02-25T14:02:14.668Z,0.90
2023-02-25T14:03:45.734Z,1.10
2023-02-25T14:05:09.977Z,0.93
2023-02-25T14:06:24.326Z,1.10
2023-02-25T14:08:15.881Z,1.27
2023-02-25T14:09:34.341Z,1.00
2023-02-25T14:10:55.472Z,1.20
2023-02-25T14:12:12.851Z,1.27
2023-02-25T14:13:46.554Z,1.10
2023-02-25T14:15:09.284Z,0.93
2023-02-25T14:16:29.248Z,1.02
2023-02-25T14:17:47.619Z,1.00
2023-02-25T14:19:04.565Z,1.40
2023-02-25T14:20:21.530Z,1.30
2023-02-25T14:21:51.666Z,1.20
2023-02-25T14:22:58.245Z,0.90
2023-02-25T14:24:08.194Z,1.30
2023-02-25T14:25:35.268Z,1.52
2023-02-25T14:26:45.734Z,1.30
2023-02-25T14:28:00.715Z,1.50
2023-02-25T14:29:15.182Z,1.00
2023-02-25T14:30:39.697Z,0.95
2023-02-25T14:31:58.531Z,1.00
2023-02-25T14:33:32.711Z,1.02
2023-02-25T14:34:50.970Z,1.13
2023-02-25T14:36:07.944Z,1.05
2023-02-25T14:37:22.487Z,1.65
2023-02-25T14:38:38.706Z,1.23
2023-02-25T14:39:56.344Z,1.13
2023-02-25T14:41:22.412Z,0.90
2023-02-25T14:42:45.981Z,1.48
2023-02-25T14:43:54.069Z,1.20
2023-02-25T14:45:01.123Z,1.00
2023-02-25T14:46:21.624Z,1.20
2023-02-25T14:47:29.565Z,1.33
2023-02-25T14:48:42.978Z,1.13
2023-02-25T14:49:59.748Z,1.10
2023-02-25T14:51:27.167Z,0.90
2023-02-25T14:52:58.777Z,1.35
2023-02-25T14:54:24.199Z,1.25
2023-02-25T14:56:01.330Z,1.40
2023-02-25T14:57:27.705Z,0.88
2023-02-25T14:58:58.409Z,1.20
2023-02-25T15:00:26.721Z,1.17
2023-02-25T15:02:09.306Z,1.10
2023-02-25T15:03:37.085Z,0.98
2023-02-25T15:05:14.285Z,1.27
2023-02-25T15:06:32.706Z,1.02
2023-02-25T15:08:08.042Z,1.17
2023-02-25T15:09:34.597Z,1.05
2023-02-25T15:11:00.876Z,1.05
2023-02-25T15:12:21.158Z,0.93
2023-02-25T15:14:06.642Z,1.10
2023-02-25T15:15:29.876Z,1.58